Time;durP1;ratioP1;P1;durP2;ratioP2;P2;SDS_P1;SDS_P2;PMS_P1;PMS_P2;Temp;Humidity;BMP_temperature;BMP_pressure;BME280_temperature;BME280_humidity;BME280_pressure;Samples;Min_cycle;Max_cycle;Signal;HPM_P1;HPM_P2
2021/12/13 00:00:45;;;;;;;13.50;5.93;;;;;;;2.01;99.68;96828.88;5094917;28;20910;-36
2021/12/13 00:03:21;;;;;;;14.67;8.57;;;;;;;2.02;99.19;96824.44;5094565;28;20437;-36
2021/12/13 00:05:50;;;;;;;10.40;5.70;;;;;;;1.97;98.91;96827.63;5094700;28;20435;-36
2021/12/13 00:08:25;;;;;;;8.57;6.10;;;;;;;1.96;99.04;96826.00;5094560;28;20491;-37
2021/12/13 00:10:56;;;;;;;5.63;4.97;;;;;;;1.98;99.26;96824.03;5094988;28;20435;-37
2021/12/13 00:13:29;;;;;;;5.30;4.47;;;;;;;1.97;99.04;96826.81;5094844;28;20423;-37
2021/12/13 00:16:02;;;;;;;5.17;4.40;;;;;;;1.91;99.36;96823.09;5094756;28;20448;-36
2021/12/13 00:18:34;;;;;;;5.23;4.53;;;;;;;1.90;98.52;96829.34;5094485;28;20441;-37
2021/12/13 00:21:07;;;;;;;7.07;5.00;;;;;;;1.86;99.13;96825.47;5094817;28;20507;-37
2021/12/13 00:23:42;;;;;;;5.50;4.87;;;;;;;1.87;99.33;96826.25;5094301;28;20443;-37
2021/12/13 00:26:10;;;;;;;13.90;5.73;;;;;;;1.84;99.30;96823.00;5094350;28;20771;-37
2021/12/13 00:28:40;;;;;;;7.87;5.67;;;;;;;1.79;99.37;96829.78;5094143;28;20491;-37
2021/12/13 00:31:25;;;;;;;14.03;6.20;;;;;;;1.82;99.72;96838.09;5094569;28;20454;-37
2021/12/13 00:34:31;;;;;;;7.30;5.90;;;;;;;1.77;99.27;96827.34;5094525;28;20794;-37
2021/12/13 00:37:06;;;;;;;9.47;8.30;;;;;;;1.79;99.53;96827.19;5087986;28;20450;-37
2021/12/13 00:39:41;;;;;;;8.53;6.50;;;;;;;1.78;99.65;96828.16;5094087;28;20905;-37
2021/12/13 00:42:09;;;;;;;8.53;6.23;;;;;;;1.83;100.00;96828.44;5094030;28;20808;-37
2021/12/13 00:44:40;;;;;;;8.53;5.27;;;;;;;1.86;99.82;96833.31;5094353;28;20446;-37
2021/12/13 00:47:13;;;;;;;10.47;6.83;;;;;;;1.88;99.46;96828.72;5094221;28;20479;-37
2021/12/13 00:49:48;;;;;;;6.27;5.10;;;;;;;1.90;99.58;96829.34;5093968;28;20933;-37
2021/12/13 00:52:17;;;;;;;4.10;3.70;;;;;;;1.92;99.43;96814.25;5093891;28;20926;-36
2021/12/13 00:54:46;;;;;;;5.83;5.10;;;;;;;1.91;99.22;96817.84;5093814;28;20926;-37
2021/12/13 00:57:37;;;;;;;6.03;4.30;;;;;;;1.83;99.64;96810.13;5094054;28;20443;-37
2021/12/13 01:00:16;;;;;;;5.97;4.10;;;;;;;1.87;99.37;96821.81;5094133;28;20427;-37
2021/12/13 01:02:46;;;;;;;8.40;4.53;;;;;;;1.86;99.48;96814.97;5093760;28;20437;-37
2021/12/13 01:05:18;;;;;;;5.67;4.37;;;;;;;1.86;100.00;96809.75;5093435;28;20475;-37
2021/12/13 01:08:11;;;;;;;5.10;4.70;;;;;;;1.84;99.95;96822.19;5094423;28;20528;-37
2021/12/13 01:11:20;;;;;;;5.00;3.67;;;;;;;1.84;100.00;96816.97;5093688;28;20477;-36
2021/12/13 01:14:12;;;;;;;5.70;3.90;;;;;;;1.82;99.77;96814.53;5093261;28;20431;-37
2021/12/13 01:16:58;;;;;;;5.03;4.57;;;;;;;1.81;100.00;96817.34;5094410;28;20430;-37
2021/12/13 01:19:36;;;;;;;7.33;4.47;;;;;;;1.81;100.00;96812.91;5093494;28;20798;-37
2021/12/13 01:22:42;;;;;;;4.97;4.47;;;;;;;1.81;100.00;96814.72;5093565;28;20506;-37
2021/12/13 01:25:37;;;;;;;4.70;3.10;;;;;;;1.75;99.63;96811.00;5093526;28;20988;-36
2021/12/13 01:28:11;;;;;;;3.77;3.57;;;;;;;1.76;99.75;96798.72;5093658;28;20497;-38
2021/12/13 01:30:43;;;;;;;6.33;4.10;;;;;;;1.76;99.95;96803.97;5093777;28;20427;-38
2021/12/13 01:33:13;;;;;;;4.83;4.13;;;;;;;1.79;99.79;96798.38;5093436;28;20481;-37
2021/12/13 01:35:43;;;;;;;7.53;4.57;;;;;;;1.80;99.73;96805.22;5093688;28;20445;-36
2021/12/13 01:38:16;;;;;;;7.77;4.83;;;;;;;1.81;99.26;96809.50;5093365;28;20526;-37
2021/12/13 01:40:47;;;;;;;8.20;4.33;;;;;;;1.79;99.41;96806.22;5093663;28;20776;-37
2021/12/13 01:43:17;;;;;;;10.43;5.33;;;;;;;1.78;99.26;96807.22;5093327;28;20790;-37
2021/12/13 01:45:46;;;;;;;6.43;4.20;;;;;;;1.75;99.18;96807.59;5093556;28;21005;-37
2021/12/13 01:48:22;;;;;;;8.17;4.20;;;;;;;1.76;99.25;96810.00;5093523;28;20513;-36
2021/12/13 01:50:53;;;;;;;7.23;4.33;;;;;;;1.77;99.06;96810.84;5093370;28;20435;-37
2021/12/13 01:53:34;;;;;;;4.40;3.57;;;;;;;1.79;99.21;96817.50;5093287;28;20424;-37
2021/12/13 01:56:10;;;;;;;10.43;6.33;;;;;;;1.80;98.85;96815.69;5093293;28;20438;-37
2021/12/13 01:58:43;;;;;;;16.40;8.17;;;;;;;1.80;98.93;96805.22;5093272;28;20438;-37
2021/12/13 02:01:14;;;;;;;8.33;4.87;;;;;;;1.82;98.88;96808.47;5093224;28;20431;-37
2021/12/13 02:03:50;;;;;;;8.57;4.87;;;;;;;1.82;98.65;96811.09;5093237;28;20482;-37
2021/12/13 02:06:30;;;;;;;12.47;5.73;;;;;;;1.82;98.65;96808.47;5093040;28;20447;-37
2021/12/13 02:09:03;;;;;;;6.27;5.20;;;;;;;1.82;98.87;96809.28;5093429;28;20829;-37
2021/12/13 02:11:32;;;;;;;6.27;4.20;;;;;;;1.84;98.56;96806.50;5093104;28;20439;-37
2021/12/13 02:14:09;;;;;;;5.10;4.03;;;;;;;1.85;98.72;96813.38;5093005;28;20453;-37
2021/12/13 02:17:01;;;;;;;5.40;4.37;;;;;;;1.85;98.49;96810.75;5093002;28;20521;-37
2021/12/13 02:19:40;;;;;;;6.57;3.40;;;;;;;1.87;98.31;96807.94;5093387;28;20442;-37
2021/12/13 02:22:23;;;;;;;6.80;5.77;;;;;;;1.88;98.50;96812.19;5093007;28;20430;-37
2021/12/13 02:24:52;;;;;;;15.43;7.60;;;;;;;1.86;98.55;96809.75;5094622;28;20922;-37
2021/12/13 02:27:23;;;;;;;11.70;5.87;;;;;;;1.89;98.44;96830.31;5096904;28;20446;-37
2021/12/13 02:29:53;;;;;;;17.43;6.70;;;;;;;1.87;98.28;96821.81;5096556;28;20435;-37
2021/12/13 02:32:22;;;;;;;11.37;7.17;;;;;;;1.87;98.59;96824.44;5096553;28;20442;-37
2021/12/13 02:34:51;;;;;;;11.60;7.70;;;;;;;1.87;98.49;96816.59;5096721;28;20478;-37
2021/12/13 02:37:21;;;;;;;12.90;6.00;;;;;;;1.89;98.62;96830.31;5096436;28;20439;-37
2021/12/13 02:39:56;;;;;;;12.23;6.70;;;;;;;1.87;98.88;96827.06;5096649;28;20446;-37
2021/12/13 02:42:24;;;;;;;23.77;7.53;;;;;;;1.87;98.89;96828.88;5096359;28;20484;-37
2021/12/13 02:44:57;;;;;;;29.50;5.97;;;;;;;1.87;98.70;96829.69;5096336;28;20454;-37
2021/12/13 02:47:31;;;;;;;6.47;5.10;;;;;;;1.86;99.04;96841.16;5096240;28;20514;-37
2021/12/13 02:49:59;;;;;;;9.07;5.87;;;;;;;1.86;98.92;96835.94;5096519;28;20434;-37
2021/12/13 02:52:27;;;;;;;9.13;4.47;;;;;;;1.88;98.82;96833.13;5096114;28;20439;-37
2021/12/13 02:54:59;;;;;;;6.73;4.40;;;;;;;1.88;99.16;96844.41;5096410;28;20466;-34
2021/12/13 02:57:33;;;;;;;8.60;5.73;;;;;;;1.89;98.93;96835.56;5096364;28;20434;-36
2021/12/13 03:00:10;;;;;;;6.53;4.10;;;;;;;1.91;98.94;96838.00;5096055;28;20434;-35
2021/12/13 03:02:40;;;;;;;5.13;4.13;;;;;;;1.93;99.17;96836.00;5096368;28;20809;-36
2021/12/13 03:05:14;;;;;;;6.80;3.63;;;;;;;1.95;99.22;96844.50;5095718;28;20485;-36
2021/12/13 03:07:45;;;;;;;6.50;4.13;;;;;;;1.94;98.98;96841.09;5095855;28;20477;-36
2021/12/13 03:10:19;;;;;;;5.20;4.30;;;;;;;1.95;99.29;96840.06;5095909;28;20427;-36
2021/12/13 03:12:47;;;;;;;6.13;4.30;;;;;;;1.95;98.76;96840.06;5095881;28;20433;-36
2021/12/13 03:15:17;;;;;;;7.20;4.00;;;;;;;1.94;98.22;96848.94;5096086;28;20443;-36
2021/12/13 03:17:49;;;;;;;7.33;4.73;;;;;;;1.94;98.26;96833.22;5095764;28;20442;-36
2021/12/13 03:20:34;;;;;;;7.67;5.67;;;;;;;1.95;97.99;96845.31;5095948;28;20442;-37
2021/12/13 03:23:23;;;;;;;6.27;4.57;;;;;;;1.80;97.71;96826.16;5095663;28;20434;-37
2021/12/13 03:26:14;;;;;;;6.40;5.10;;;;;;;1.90;97.78;96852.09;5095814;28;20419;-37
2021/12/13 03:28:57;;;;;;;5.87;4.50;;;;;;;1.86;98.01;96835.94;5095336;28;20843;-37
2021/12/13 03:31:27;;;;;;;7.50;3.90;;;;;;;1.85;98.24;96850.03;5095748;28;20427;-37
2021/12/13 03:34:00;;;;;;;5.10;4.60;;;;;;;1.87;98.29;96845.41;5095658;28;20888;-37
2021/12/13 03:36:40;;;;;;;5.10;4.53;;;;;;;1.86;98.17;96833.31;5095264;28;20797;-37
2021/12/13 03:39:10;;;;;;;5.77;5.03;;;;;;;1.84;97.86;96843.16;5095283;28;20537;-37
2021/12/13 03:41:43;;;;;;;11.63;6.70;;;;;;;1.74;97.42;96850.44;5095494;28;20518;-37
2021/12/13 03:44:14;;;;;;;6.53;5.30;;;;;;;1.70;98.00;96847.41;5095502;28;20488;-37
2021/12/13 03:46:45;;;;;;;12.37;7.10;;;;;;;1.71;97.75;96845.59;5095166;28;20432;-37
2021/12/13 03:49:13;;;;;;;11.10;7.30;;;;;;;1.64;98.33;96850.72;5095039;28;20801;-37
2021/12/13 03:51:42;;;;;;;16.83;7.57;;;;;;;1.67;98.60;96846.94;5095057;28;20445;-37
2021/12/13 03:54:15;;;;;;;14.20;9.67;;;;;;;1.66;98.87;96842.66;5094893;28;20443;-36
2021/12/13 03:56:50;;;;;;;10.70;7.40;;;;;;;1.61;98.97;96854.50;5095221;28;20431;-36
2021/12/13 03:59:20;;;;;;;11.87;8.67;;;;;;;1.51;99.16;96842.66;5094853;28;20431;-37
2021/12/13 04:01:51;;;;;;;10.53;8.67;;;;;;;1.66;99.69;96848.75;5094812;28;20428;-37
2021/12/13 04:04:33;;;;;;;14.87;11.00;;;;;;;1.52;100.00;96832.00;5094987;28;20478;-37
2021/12/13 04:07:06;;;;;;;22.27;12.70;;;;;;;1.74;100.00;96853.91;5094778;28;20438;-36
2021/12/13 04:09:34;;;;;;;22.40;12.73;;;;;;;1.77;99.95;96848.28;5094997;28;20483;-37
2021/12/13 04:12:07;;;;;;;11.73;7.10;;;;;;;1.78;100.00;96859.56;5094604;28;20439;-36
2021/12/13 04:14:43;;;;;;;11.20;6.27;;;;;;;1.80;99.73;96862.81;5094904;28;20424;-37
2021/12/13 04:17:23;;;;;;;26.37;10.83;;;;;;;1.81;100.00;96859.22;5093201;28;20493;-40
2021/12/13 04:19:54;;;;;;;16.93;11.90;;;;;;;1.64;99.77;96833.19;5092717;28;21009;-37
2021/12/13 04:22:25;;;;;;;17.37;10.43;;;;;;;1.80;99.33;96857.59;5092691;28;20446;-37
2021/12/13 04:24:56;;;;;;;18.27;10.00;;;;;;;1.81;99.30;96867.09;5092390;28;20427;-37
2021/12/13 04:27:27;;;;;;;20.30;11.23;;;;;;;1.82;99.52;96855.59;5092685;28;20423;-36
2021/12/13 04:29:59;;;;;;;27.63;14.60;;;;;;;1.82;99.81;96858.22;5091524;28;20490;-38
2021/12/13 04:32:30;;;;;;;25.17;16.20;;;;;;;1.82;99.75;96858.22;5092215;28;20431;-38
2021/12/13 04:35:03;;;;;;;18.30;13.00;;;;;;;1.80;99.62;96862.81;5092179;28;20446;-38
2021/12/13 04:37:34;;;;;;;12.87;9.63;;;;;;;1.79;99.31;96866.44;5092478;28;20481;-38
2021/12/13 04:40:06;;;;;;;15.97;10.83;;;;;;;1.78;98.64;96867.41;5092033;28;20435;-38
2021/12/13 04:42:36;;;;;;;23.53;11.80;;;;;;;1.78;98.39;96875.28;5092120;28;20431;-38
2021/12/13 04:45:07;;;;;;;24.83;12.73;;;;;;;1.73;97.62;96878.44;5091870;28;20468;-37
2021/12/13 04:47:42;;;;;;;25.10;11.97;;;;;;;1.55;97.52;96855.22;5091633;28;20781;-38
2021/12/13 04:50:17;;;;;;;23.00;13.83;;;;;;;1.70;97.55;96867.50;5092172;28;20482;-37
2021/12/13 04:52:47;;;;;;;31.70;14.27;;;;;;;1.73;97.50;96873.19;5092152;28;20419;-37
2021/12/13 04:55:20;;;;;;;17.40;11.50;;;;;;;1.75;97.68;96871.22;5091796;28;20427;-36
2021/12/13 04:57:52;;;;;;;10.40;7.70;;;;;;;1.73;98.11;96872.41;5091692;28;20427;-38
2021/12/13 05:00:23;;;;;;;11.70;8.07;;;;;;;1.74;98.64;96874.00;5091685;28;20431;-37
2021/12/13 05:02:53;;;;;;;15.67;8.80;;;;;;;1.75;98.69;96875.66;5091945;28;20765;-37
2021/12/13 05:05:21;;;;;;;8.93;6.80;;;;;;;1.78;98.84;96888.38;5091534;28;20471;-37
2021/12/13 05:07:52;;;;;;;12.83;8.10;;;;;;;1.61;98.78;96857.13;5092039;28;20454;-37
2021/12/13 05:10:23;;;;;;;17.67;11.50;;;;;;;1.81;98.38;96891.44;5091362;28;20509;-38
2021/12/13 05:13:06;;;;;;;33.00;17.70;;;;;;;1.64;98.16;96864.63;5091620;28;20424;-38
2021/12/13 05:15:35;;;;;;;28.30;13.80;;;;;;;1.86;98.30;96887.50;5091589;28;20442;-37
2021/12/13 05:18:05;;;;;;;21.00;13.67;;;;;;;1.85;98.53;96891.91;5091884;28;20458;-37
2021/12/13 05:20:37;;;;;;;11.83;10.63;;;;;;;1.87;98.51;96900.38;5091875;28;20443;-37
2021/12/13 05:23:07;;;;;;;19.57;12.10;;;;;;;1.90;98.46;96896.63;5091091;28;20510;-37
2021/12/13 05:25:37;;;;;;;39.93;20.60;;;;;;;1.91;98.26;96895.59;5091801;28;20434;-37
2021/12/13 05:28:11;;;;;;;52.27;28.33;;;;;;;1.85;98.34;96886.69;5091452;28;20429;-36
2021/12/13 05:30:45;;;;;;;28.37;18.40;;;;;;;1.89;97.92;96894.97;5091719;28;20431;-37
2021/12/13 05:33:16;;;;;;;23.63;9.50;;;;;;;1.90;98.20;96900.03;5091432;28;20422;-37
2021/12/13 05:35:47;;;;;;;20.17;13.07;;;;;;;1.91;98.30;96895.59;5092831;28;20937;-37
2021/12/13 05:38:26;;;;;;;15.37;12.27;;;;;;;1.92;98.20;96902.50;5090285;28;20443;-37
2021/12/13 05:40:54;;;;;;;17.47;11.70;;;;;;;1.94;98.05;96914.41;5091310;28;20920;-38
2021/12/13 05:43:25;;;;;;;11.57;10.03;;;;;;;1.93;97.88;96914.56;5091247;28;20439;-36
2021/12/13 05:45:57;;;;;;;11.37;8.80;;;;;;;1.96;97.78;96915.03;5091355;28;20435;-37
2021/12/13 05:48:42;;;;;;;16.97;11.00;;;;;;;1.97;97.81;96915.84;5093260;28;20427;-38
2021/12/13 05:51:22;;;;;;;30.00;13.83;;;;;;;2.00;98.17;96921.56;5093313;28;20427;-37
2021/12/13 05:53:55;;;;;;;22.37;9.27;;;;;;;2.00;97.95;96926.78;5093300;28;20445;-37
2021/12/13 05:56:23;;;;;;;19.67;10.10;;;;;;;2.00;98.13;96942.50;5093590;28;20435;-37
2021/12/13 05:58:55;;;;;;;21.57;13.63;;;;;;;1.88;98.02;96916.94;5094987;28;20446;-37
2021/12/13 06:01:26;;;;;;;24.17;14.83;;;;;;;2.00;98.06;96934.66;5094084;28;20794;-37
2021/12/13 06:04:09;;;;;;;14.63;11.10;;;;;;;2.00;98.48;96929.41;5095123;28;20914;-37
2021/12/13 06:06:46;;;;;;;19.70;10.73;;;;;;;2.01;98.77;96933.63;5095362;28;20523;-37
2021/12/13 06:09:43;;;;;;;16.83;11.40;;;;;;;2.01;99.10;96933.63;5094967;28;20470;-37
2021/12/13 06:12:12;;;;;;;17.87;10.40;;;;;;;2.03;99.17;96936.91;5094930;28;20431;-37
2021/12/13 06:14:42;;;;;;;26.23;14.33;;;;;;;2.04;99.33;96932.47;5094389;28;20458;-36
2021/12/13 06:17:15;;;;;;;32.00;18.03;;;;;;;2.05;99.55;96934.91;5095097;28;20700;-37
2021/12/13 06:19:54;;;;;;;31.43;16.97;;;;;;;2.08;99.34;96930.31;5095171;28;20779;-38
2021/12/13 06:22:24;;;;;;;30.90;18.77;;;;;;;2.09;99.88;96934.53;5094749;28;20429;-37
2021/12/13 06:24:55;;;;;;;32.33;20.83;;;;;;;2.10;99.47;96941.44;5094692;28;20480;-37
2021/12/13 06:27:25;;;;;;;28.33;19.10;;;;;;;2.10;99.42;96937.00;5094220;28;20431;-38
2021/12/13 06:30:04;;;;;;;22.80;13.27;;;;;;;2.11;99.21;96932.56;5094514;28;21019;-38
2021/12/13 06:32:37;;;;;;;17.73;12.10;;;;;;;2.08;98.27;96928.50;5094826;28;20482;-38
2021/12/13 06:35:43;;;;;;;22.67;15.33;;;;;;;2.10;98.10;96941.44;5094451;28;20427;-36
2021/12/13 06:38:39;;;;;;;23.30;16.93;;;;;;;2.10;97.56;96946.66;5094366;28;20797;-38
2021/12/13 06:41:33;;;;;;;39.97;17.13;;;;;;;2.12;97.83;96955.16;5094274;28;20424;-37
2021/12/13 06:44:04;;;;;;;32.07;16.30;;;;;;;2.14;97.77;96950.56;5096708;28;20424;-37
2021/12/13 06:46:47;;;;;;;30.13;18.33;;;;;;;2.15;98.57;96939.06;5096337;28;20449;-36
2021/12/13 06:49:20;;;;;;;30.60;19.50;;;;;;;2.14;98.53;96937.47;5096257;28;20847;-37
2021/12/13 06:51:54;;;;;;;29.97;17.90;;;;;;;2.16;98.56;96940.72;5096643;28;20429;-36
2021/12/13 06:54:29;;;;;;;24.30;16.57;;;;;;;2.18;98.39;96928.25;5095152;28;20435;-39
2021/12/13 06:56:59;;;;;;;18.00;13.90;;;;;;;2.19;98.13;96933.28;5094018;28;20423;-38
2021/12/13 06:59:29;;;;;;;23.97;13.03;;;;;;;2.21;97.96;96940.97;5094021;28;20435;-38
2021/12/13 07:02:12;;;;;;;23.80;12.30;;;;;;;2.24;97.89;96938.00;5094269;28;20442;-38
2021/12/13 07:04:56;;;;;;;19.60;11.53;;;;;;;2.27;98.08;96942.88;5093744;28;20466;-37
2021/12/13 07:07:26;;;;;;;32.40;15.40;;;;;;;2.13;97.94;96930.56;5093579;28;20424;-37
2021/12/13 07:09:57;;;;;;;32.07;18.00;;;;;;;2.26;97.79;96941.28;5093149;28;20834;-38
2021/12/13 07:12:27;;;;;;;41.47;22.03;;;;;;;2.25;97.27;96950.09;5093712;28;20801;-38
2021/12/13 07:14:55;;;;;;;28.90;19.03;;;;;;;2.24;97.83;96951.13;5093694;28;20479;-38
2021/12/13 07:17:30;;;;;;;36.20;20.90;;;;;;;2.26;98.19;96962.22;5093655;28;20446;-38
2021/12/13 07:19:58;;;;;;;34.27;18.90;;;;;;;2.25;98.35;96960.59;5093952;28;20431;-37
2021/12/13 07:22:27;;;;;;;37.37;21.40;;;;;;;2.32;98.50;96966.72;5092982;28;20443;-36
2021/12/13 07:25:03;;;;;;;27.73;16.97;;;;;;;2.18;98.27;96928.25;5093463;28;20457;-36
2021/12/13 07:27:35;;;;;;;35.27;19.20;;;;;;;2.27;97.98;96953.38;5093251;28;20441;-37
2021/12/13 07:30:12;;;;;;;24.87;13.23;;;;;;;2.38;98.04;96976.50;5093768;28;20563;-37
2021/12/13 07:32:46;;;;;;;32.73;18.20;;;;;;;2.41;97.70;96975.31;5093323;28;20438;-37
2021/12/13 07:35:17;;;;;;;30.97;17.90;;;;;;;2.45;97.58;96974.78;5093229;28;20789;-36
2021/12/13 07:37:50;;;;;;;38.73;20.50;;;;;;;2.50;97.57;96971.63;5093492;28;20447;-37
2021/12/13 07:40:28;;;;;;;41.90;20.67;;;;;;;2.53;97.26;96983.56;5093596;28;20455;-37
2021/12/13 07:43:06;;;;;;;33.97;18.20;;;;;;;2.58;97.26;96981.19;5093458;28;20423;-36
2021/12/13 07:45:42;;;;;;;32.33;19.60;;;;;;;2.61;96.84;96983.47;5093411;28;20435;-36
2021/12/13 07:48:14;;;;;;;40.87;21.33;;;;;;;2.43;96.96;96962.84;5092583;28;20437;-36
2021/12/13 07:50:46;;;;;;;35.50;23.00;;;;;;;2.62;97.30;96992.94;5093271;28;20483;-37
2021/12/13 07:53:16;;;;;;;50.67;23.60;;;;;;;2.63;96.85;96994.59;5093289;28;20453;-37
2021/12/13 07:55:49;;;;;;;36.63;21.90;;;;;;;2.65;97.15;97003.91;5093193;28;20431;-37
2021/12/13 07:58:34;;;;;;;27.57;19.60;;;;;;;2.67;97.11;97022.09;5093464;28;20467;-36
2021/12/13 08:01:11;;;;;;;17.70;10.10;;;;;;;2.68;97.17;97010.59;5094826;28;20510;-34
2021/12/13 08:03:51;;;;;;;18.77;13.30;;;;;;;2.65;97.05;97014.38;5094678;28;20474;-36
2021/12/13 08:06:19;;;;;;;18.53;12.30;;;;;;;2.66;97.44;97023.06;5095036;28;20454;-36
2021/12/13 08:08:54;;;;;;;15.03;9.77;;;;;;;2.68;97.92;97023.69;5094671;28;20439;-36
2021/12/13 08:11:36;;;;;;;12.93;9.80;;;;;;;2.71;97.57;97028.59;5094954;28;20426;-36
2021/12/13 08:14:05;;;;;;;23.17;14.33;;;;;;;2.74;97.68;97028.22;5094974;28;20431;-36
2021/12/13 08:16:38;;;;;;;24.03;15.20;;;;;;;2.77;97.33;97017.34;5094847;28;20447;-36
2021/12/13 08:19:17;;;;;;;33.33;22.63;;;;;;;2.80;97.27;97027.50;5094870;28;20438;-36
2021/12/13 08:21:48;;;;;;;32.70;18.70;;;;;;;2.84;97.61;97028.75;5093603;28;20442;-36
2021/12/13 08:24:27;;;;;;;47.67;24.93;;;;;;;2.88;97.59;97029.19;5094490;28;20434;-36
2021/12/13 08:26:58;;;;;;;51.00;27.20;;;;;;;2.91;97.93;97025.44;5094694;28;20453;-36
2021/12/13 08:29:31;;;;;;;42.67;24.57;;;;;;;2.90;97.25;97036.91;5094283;28;20974;-36
2021/12/13 08:32:00;;;;;;;23.60;15.90;;;;;;;2.90;97.51;97042.94;5094336;28;20492;-36
2021/12/13 08:34:32;;;;;;;20.40;14.60;;;;;;;2.92;96.78;97040.97;5094239;28;20438;-36
2021/12/13 08:37:00;;;;;;;29.90;15.50;;;;;;;2.93;96.31;97041.78;5094225;28;20934;-36
2021/12/13 08:39:32;;;;;;;34.70;19.47;;;;;;;2.95;96.14;97034.56;5094142;28;20537;-36
2021/12/13 08:42:02;;;;;;;30.83;17.43;;;;;;;2.95;96.24;97029.31;5094431;28;20451;-37
2021/12/13 08:44:35;;;;;;;22.50;16.40;;;;;;;2.96;96.11;97041.41;5094013;28;20453;-37
2021/12/13 08:47:06;;;;;;;21.30;12.00;;;;;;;2.99;95.87;97041.88;5094018;28;20855;-37
2021/12/13 08:49:41;;;;;;;19.97;12.40;;;;;;;3.01;94.79;97049.53;5094225;28;20474;-36
2021/12/13 08:52:20;;;;;;;18.43;13.03;;;;;;;3.03;94.09;97060.66;5094279;28;20419;-36
2021/12/13 08:54:52;;;;;;;20.73;13.23;;;;;;;3.02;95.08;97053.81;5094238;28;20431;-37
2021/12/13 08:57:38;;;;;;;20.70;11.93;;;;;;;2.96;96.03;97054.53;5093917;28;20434;-36
2021/12/13 09:00:17;;;;;;;19.47;11.43;;;;;;;2.95;96.41;97050.28;5093851;28;20988;-36
2021/12/13 09:02:48;;;;;;;16.40;10.27;;;;;;;2.94;96.55;97048.66;5093818;28;20791;-37
2021/12/13 09:05:21;;;;;;;37.00;19.50;;;;;;;2.96;96.83;97049.28;5093581;28;20481;-37
2021/12/13 09:07:52;;;;;;;43.90;24.30;;;;;;;2.86;97.00;97032.03;5094100;28;20438;-36
2021/12/13 09:10:20;;;;;;;60.30;34.77;;;;;;;2.98;97.77;97049.91;5093602;28;21009;-37
2021/12/13 09:12:47;;;;;;;26.07;18.97;;;;;;;2.99;98.18;97041.03;5093602;28;20447;-36
2021/12/13 09:15:22;;;;;;;37.30;22.43;;;;;;;3.01;98.26;97037.25;5093828;28;20918;-37
2021/12/13 09:17:52;;;;;;;29.70;16.57;;;;;;;3.05;98.34;97029.81;5093887;28;20472;-37
2021/12/13 09:20:23;;;;;;;19.60;13.73;;;;;;;3.06;98.32;97020.97;5093550;28;20443;-37
2021/12/13 09:22:53;;;;;;;23.93;13.80;;;;;;;3.06;98.21;97020.97;5093655;28;20928;-36
2021/12/13 09:25:30;;;;;;;18.20;11.67;;;;;;;2.83;96.51;97005.34;5093861;28;20439;-37
2021/12/13 09:28:02;;;;;;;7.33;6.00;;;;;;;2.99;95.33;97020.06;5093519;28;20522;-37
2021/12/13 09:30:41;;;;;;;9.33;6.03;;;;;;;2.94;93.52;97022.44;5093469;28;20474;-36
2021/12/13 09:33:15;;;;;;;65.63;27.13;;;;;;;2.84;92.55;97023.53;5094079;28;20438;-36
2021/12/13 09:35:50;;;;;;;63.30;30.97;;;;;;;2.90;93.44;97026.41;5097606;28;20430;-37
2021/12/13 09:38:38;;;;;;;28.57;12.50;;;;;;;2.92;93.59;97019.97;5097634;28;20426;-36
2021/12/13 09:41:13;;;;;;;11.13;7.70;;;;;;;2.85;93.05;97008.59;5097957;28;20502;-36
2021/12/13 09:43:49;;;;;;;8.30;6.37;;;;;;;2.93;93.21;97005.06;5097831;28;20425;-36
2021/12/13 09:46:20;;;;;;;9.03;7.10;;;;;;;2.94;92.68;97004.88;5097554;28;20431;-36
2021/12/13 09:48:56;;;;;;;18.57;12.30;;;;;;;2.95;92.72;97008.31;5097392;28;20443;-36
2021/12/13 09:51:30;;;;;;;5.23;4.70;;;;;;;2.95;92.44;96996.03;5095682;28;20479;-37
2021/12/13 09:54:01;;;;;;;14.10;6.13;;;;;;;2.97;92.39;97001.91;5095209;28;20922;-37
2021/12/13 09:56:35;;;;;;;10.53;6.37;;;;;;;3.01;92.66;97010.19;5095598;28;20427;-37
2021/12/13 09:59:14;;;;;;;6.50;4.50;;;;;;;2.95;90.80;97000.47;5095460;28;20518;-37
2021/12/13 10:01:42;;;;;;;19.17;10.60;;;;;;;2.97;91.30;97011.56;5095459;28;20438;-37
2021/12/13 10:04:13;;;;;;;25.67;10.43;;;;;;;2.97;92.36;97017.63;5094405;28;20485;-37
2021/12/13 10:06:45;;;;;;;11.37;8.70;;;;;;;2.97;92.12;97014.19;5095409;28;20435;-36
2021/12/13 10:09:17;;;;;;;14.30;7.90;;;;;;;2.97;91.26;97011.56;5095323;28;20419;-37
2021/12/13 10:11:47;;;;;;;15.57;6.60;;;;;;;2.97;91.62;97016.81;5095251;28;20506;-37
2021/12/13 10:14:19;;;;;;;11.23;5.97;;;;;;;2.96;90.70;97015.19;5094898;28;20803;-38
2021/12/13 10:16:49;;;;;;;5.90;5.10;;;;;;;3.00;90.98;97011.19;5095208;28;20430;-38
2021/12/13 10:19:24;;;;;;;5.77;5.20;;;;;;;3.03;91.43;97008.19;5094327;28;20803;-38
2021/12/13 10:21:52;;;;;;;9.53;6.17;;;;;;;3.04;91.08;97008.03;5095063;28;20504;-37
2021/12/13 10:24:23;;;;;;;4.77;4.37;;;;;;;3.06;90.20;97007.84;5094966;28;20443;-37
2021/12/13 10:38:30;;;;;;;7.60;6.77;;;;;;;3.44;89.48;96997.16;5129748;27;20292;-37
2021/12/13 10:41:01;;;;;;;7.30;4.90;;;;;;;3.50;88.86;97006.91;5129418;28;20520;-38
2021/12/13 10:43:31;;;;;;;8.60;6.13;;;;;;;3.52;88.62;96998.88;5129473;28;20436;-38
2021/12/13 10:46:03;;;;;;;11.30;7.40;;;;;;;3.54;88.95;96997.69;5129491;28;20434;-37
2021/12/13 10:48:32;;;;;;;43.17;23.70;;;;;;;3.56;89.76;96990.44;5128918;28;20429;-40
2021/12/13 10:51:05;;;;;;;38.13;23.30;;;;;;;3.54;90.54;96994.25;5129636;28;21179;-38
2021/12/13 10:53:36;;;;;;;20.33;12.83;;;;;;;3.56;91.67;96994.88;5129367;28;20456;-38
2021/12/13 10:56:07;;;;;;;37.93;19.80;;;;;;;3.52;92.04;96983.13;5129171;28;20742;-37
2021/12/13 10:58:39;;;;;;;111.33;36.13;;;;;;;3.52;92.84;96983.13;5129713;28;20809;-37
2021/12/13 11:01:12;;;;;;;64.70;26.03;;;;;;;3.46;93.71;96976.78;5129031;28;20433;-37
2021/12/13 11:03:41;;;;;;;132.33;45.20;;;;;;;3.30;93.48;96954.22;5129133;28;20433;-37
2021/12/13 11:06:11;;;;;;;98.13;39.47;;;;;;;3.45;93.89;96975.97;5129058;28;20550;-37
2021/12/13 11:08:42;;;;;;;33.67;17.40;;;;;;;3.48;94.32;96977.41;5128932;28;20447;-37
2021/12/13 11:11:15;;;;;;;91.23;30.80;;;;;;;3.28;94.11;96941.28;5129322;28;20476;-37
2021/12/13 11:13:43;;;;;;;86.83;35.90;;;;;;;3.44;94.53;96973.53;5129190;28;20537;-37
2021/12/13 11:16:14;;;;;;;43.60;23.83;;;;;;;3.47;94.45;96960.06;5128338;28;20484;-37
2021/12/13 11:18:44;;;;;;;22.77;13.17;;;;;;;3.47;93.88;96958.25;5128761;28;20509;-37
2021/12/13 11:21:16;;;;;;;37.67;17.30;;;;;;;3.52;93.96;96964.75;5129075;28;20465;-38
2021/12/13 11:23:45;;;;;;;32.93;17.40;;;;;;;3.51;93.36;96955.22;5128661;28;20431;-37
2021/12/13 11:26:17;;;;;;;79.90;29.03;;;;;;;3.52;93.50;96959.50;5128681;28;20447;-39
2021/12/13 11:28:45;;;;;;;43.17;18.50;;;;;;;3.57;93.30;96960.56;5128201;28;20437;-39
2021/12/13 11:31:15;;;;;;;34.37;13.67;;;;;;;3.58;92.77;96966.63;5128556;28;20458;-39
2021/12/13 11:34:33;;;;;;;35.20;15.17;;;;;;;3.61;92.76;96961.78;5128737;28;20437;-39
2021/12/13 11:37:37;;;;;;;30.50;14.20;;;;;;;3.64;92.97;96960.63;5128139;28;20497;-40
2021/12/13 11:40:21;;;;;;;30.20;13.10;;;;;;;3.66;92.50;96963.88;5114258;28;20804;-39
2021/12/13 11:43:22;;;;;;;17.43;10.07;;;;;;;3.65;92.06;96968.28;5114687;28;20790;-39
2021/12/13 11:46:07;;;;;;;28.97;15.40;;;;;;;3.56;92.10;96953.66;5114639;28;20430;-39
2021/12/13 11:48:59;;;;;;;27.83;14.03;;;;;;;3.64;92.50;96971.94;5114624;28;20427;-39
2021/12/13 11:51:44;;;;;;;14.63;10.53;;;;;;;3.64;93.07;96953.56;5114793;28;20878;-39
2021/12/13 11:54:55;;;;;;;10.33;7.33;;;;;;;3.71;92.73;96944.94;5114356;28;20431;-39
2021/12/13 11:58:07;;;;;;;18.03;9.70;;;;;;;3.68;92.03;96951.38;5114333;28;20477;-39
2021/12/13 12:01:14;;;;;;;13.80;8.17;;;;;;;3.67;92.47;96945.28;5059022;28;20796;-40
2021/12/13 12:04:13;;;;;;;12.17;7.70;;;;;;;3.65;92.70;96942.03;5090803;28;20779;-40
2021/12/13 12:07:20;;;;;;;13.13;7.37;;;;;;;3.64;93.03;96952.75;5113711;28;20430;-39
2021/12/13 12:10:12;;;;;;;16.80;9.27;;;;;;;3.67;93.35;96958.41;5111028;28;20797;-40
2021/12/13 12:12:55;;;;;;;29.70;13.20;;;;;;;3.69;93.23;96961.66;5114390;28;20431;-40
2021/12/13 12:15:24;;;;;;;12.97;8.90;;;;;;;3.71;93.27;96964.09;5114121;28;20441;-39
2021/12/13 12:17:53;;;;;;;27.90;9.17;;;;;;;3.66;93.12;96951.56;5113868;28;20512;-40
2021/12/13 12:20:26;;;;;;;9.07;7.17;;;;;;;3.65;92.97;96941.22;5113903;28;20446;-40